Time;durP1;ratioP1;P1;durP2;ratioP2;P2;SDS_P1;SDS_P2;PMS_P1;PMS_P2;Temp;Humidity;BMP_temperature;BMP_pressure;BME280_temperature;BME280_humidity;BME280_pressure;Samples;Min_cycle;Max_cycle;Signal;HPM_P1;HPM_P2
2021/09/19 00:01:12;;;;;;;26.55;22.80;;;;;;;12.53;100.00;101172.69;4951186;28;20063;-80
2021/09/19 00:03:38;;;;;;;24.50;21.80;;;;;;;12.50;100.00;101179.25;4950508;28;20043;-80
2021/09/19 00:06:04;;;;;;;27.05;23.08;;;;;;;12.51;100.00;101180.09;4946127;28;20406;-80
2021/09/19 00:08:29;;;;;;;28.00;23.08;;;;;;;12.50;100.00;101179.25;4947311;28;20130;-80
2021/09/19 00:10:57;;;;;;;24.95;22.25;;;;;;;12.50;100.00;101176.56;4949669;28;20051;-81
2021/09/19 00:13:22;;;;;;;26.55;23.35;;;;;;;12.44;100.00;101173.69;4947864;28;20059;-81
2021/09/19 00:15:48;;;;;;;26.35;22.17;;;;;;;12.41;100.00;101180.25;4948242;28;20417;-80
2021/09/19 00:18:14;;;;;;;26.05;21.77;;;;;;;12.38;100.00;101181.44;4953563;28;20039;-81
2021/09/19 00:20:40;;;;;;;28.25;22.70;;;;;;;12.40;100.00;101174.03;4953910;28;20058;-81
2021/09/19 00:23:06;;;;;;;28.35;22.50;;;;;;;12.38;100.00;101173.34;4954339;28;20094;-81
2021/09/19 00:25:32;;;;;;;27.35;23.85;;;;;;;12.40;100.00;101174.03;4950842;28;20058;-82
2021/09/19 00:27:58;;;;;;;27.88;22.50;;;;;;;12.40;100.00;101179.41;4953752;28;20051;-81
2021/09/19 00:30:23;;;;;;;25.10;20.55;;;;;;;12.39;100.00;101172.34;4951409;28;20054;-81
2021/09/19 00:32:49;;;;;;;29.30;21.70;;;;;;;12.35;100.00;101168.31;4953102;28;20039;-81
2021/09/19 00:35:14;;;;;;;25.05;20.65;;;;;;;12.38;100.00;101162.59;4951998;28;20043;-83
2021/09/19 00:37:39;;;;;;;26.55;21.83;;;;;;;12.33;100.00;101156.84;4948539;28;20086;-82
2021/09/19 00:40:06;;;;;;;25.02;21.60;;;;;;;12.30;100.00;101167.97;4929934;29;20089;-80
2021/09/19 00:42:31;;;;;;;24.98;20.50;;;;;;;12.25;100.00;101162.22;4952445;28;20059;-81
2021/09/19 00:45:05;;;;;;;23.90;20.88;;;;;;;12.27;100.00;101159.38;4937025;28;20047;-80
2021/09/19 00:47:31;;;;;;;24.77;21.00;;;;;;;12.25;100.00;101159.53;4920464;29;20172;-81
2021/09/19 00:49:56;;;;;;;27.23;21.92;;;;;;;12.27;100.00;101156.69;4929296;28;20076;-81
2021/09/19 00:52:22;;;;;;;23.67;20.52;;;;;;;12.27;100.00;101162.06;4931633;29;20082;-82
2021/09/19 00:54:48;;;;;;;27.15;21.63;;;;;;;12.29;100.00;101165.44;4929334;29;20069;-81
2021/09/19 00:57:15;;;;;;;24.27;20.42;;;;;;;12.29;100.00;101155.53;4898541;29;20040;-81
2021/09/19 00:59:41;;;;;;;25.10;20.55;;;;;;;12.28;100.00;101147.59;4911152;29;20066;-83
2021/09/19 01:02:09;;;;;;;23.88;19.95;;;;;;;12.26;100.00;101149.63;4908345;29;20067;-81
2021/09/19 01:04:36;;;;;;;27.60;20.58;;;;;;;12.26;100.00;101152.31;4909174;29;20044;-83
2021/09/19 01:07:01;;;;;;;26.13;20.05;;;;;;;12.25;100.00;101154.16;4918427;29;20303;-81
2021/09/19 01:09:27;;;;;;;25.30;19.48;;;;;;;12.26;100.00;101150.47;4922719;29;20052;-81
2021/09/19 01:11:53;;;;;;;25.95;21.02;;;;;;;12.20;100.00;101153.84;4948424;28;20083;-84
2021/09/19 01:14:22;;;;;;;25.83;20.45;;;;;;;12.23;100.00;101150.81;4948829;28;20154;-82
2021/09/19 01:16:50;;;;;;;28.17;21.45;;;;;;;12.24;100.00;101157.03;4966958;28;20681;-82
2021/09/19 01:19:20;;;;;;;26.15;21.02;;;;;;;12.23;100.00;101148.13;4955347;28;20103;-83
2021/09/19 01:21:46;;;;;;;26.40;21.10;;;;;;;12.25;100.00;101153.31;4952869;28;20054;-84
2021/09/19 01:24:12;;;;;;;25.73;20.45;;;;;;;12.23;100.00;101149.94;4956536;28;20063;-82
2021/09/19 01:26:37;;;;;;;26.92;21.70;;;;;;;12.23;100.00;101148.13;4955092;28;20071;-81
2021/09/19 01:29:04;;;;;;;25.83;21.00;;;;;;;12.27;100.00;101144.06;4943994;28;20043;-81
2021/09/19 01:31:29;;;;;;;24.83;20.58;;;;;;;12.24;100.00;101146.25;4937624;28;20059;-82
2021/09/19 01:33:56;;;;;;;27.92;21.10;;;;;;;12.25;100.00;101142.56;4933232;29;20078;-81
2021/09/19 01:36:21;;;;;;;24.48;20.67;;;;;;;12.26;100.00;101150.47;4931983;29;20043;-81
2021/09/19 01:38:47;;;;;;;26.90;21.52;;;;;;;12.27;100.00;101152.16;4930569;29;20059;-81
2021/09/19 01:41:21;;;;;;;29.17;20.60;;;;;;;12.23;100.00;101149.94;4939031;29;20051;-84
2021/09/19 01:43:48;;;;;;;27.73;20.40;;;;;;;12.24;100.00;101147.09;4939385;29;20174;-84
2021/09/19 01:46:14;;;;;;;23.35;18.58;;;;;;;12.25;100.00;101151.47;4938559;29;20051;-82
2021/09/19 01:48:39;;;;;;;26.10;20.63;;;;;;;12.26;100.00;101142.41;4931790;28;20051;-82
2021/09/19 01:51:06;;;;;;;26.02;19.88;;;;;;;12.26;100.00;101155.84;4928059;29;20056;-82
2021/09/19 01:53:32;;;;;;;24.67;19.35;;;;;;;12.26;100.00;101152.31;4927356;29;20050;-82
2021/09/19 01:55:57;;;;;;;23.25;18.30;;;;;;;12.29;100.00;101150.13;4939470;29;20452;-83
2021/09/19 01:58:24;;;;;;;24.08;18.83;;;;;;;12.26;100.00;101144.25;4945542;28;20060;-81
2021/09/19 02:00:54;;;;;;;25.27;18.63;;;;;;;12.23;100.00;101147.25;4954869;28;20494;-82
2021/09/19 02:03:20;;;;;;;26.45;19.50;;;;;;;12.25;100.00;101142.56;4954625;28;20050;-81
2021/09/19 02:05:46;;;;;;;27.45;20.33;;;;;;;12.19;100.00;101139.50;4952105;28;20043;-82
2021/09/19 02:08:11;;;;;;;24.45;19.02;;;;;;;12.18;100.00;101134.31;4959066;28;20043;-82
2021/09/19 02:10:37;;;;;;;26.17;20.38;;;;;;;12.19;100.00;101130.59;4950340;28;20505;-83
2021/09/19 02:13:02;;;;;;;26.02;19.73;;;;;;;12.17;100.00;101133.47;4948560;28;20051;-82
2021/09/19 02:15:28;;;;;;;27.20;20.33;;;;;;;12.16;100.00;101121.00;4941621;28;20595;-80
2021/09/19 02:17:53;;;;;;;28.00;21.25;;;;;;;12.17;100.00;101121.88;4948037;28;20047;-81
2021/09/19 02:20:19;;;;;;;26.13;19.48;;;;;;;12.12;100.00;101125.06;4945378;28;20054;-83
2021/09/19 02:22:45;;;;;;;28.83;20.63;;;;;;;12.13;100.00;101128.59;4941866;28;20074;-82
2021/09/19 02:25:12;;;;;;;27.98;20.80;;;;;;;12.12;100.00;101122.38;4934691;28;20047;-81
2021/09/19 02:27:39;;;;;;;28.67;21.60;;;;;;;12.14;100.00;101116.81;4925621;28;20451;-81
2021/09/19 02:30:10;;;;;;;26.48;21.10;;;;;;;12.12;100.00;101113.47;4929402;28;20051;-83
2021/09/19 02:32:36;;;;;;;25.98;20.50;;;;;;;12.12;100.00;101116.16;4926103;29;20051;-80
2021/09/19 02:35:02;;;;;;;27.55;21.50;;;;;;;12.10;100.00;101112.78;4926648;29;20086;-80
2021/09/19 02:37:28;;;;;;;25.73;21.70;;;;;;;12.07;100.00;101110.44;4923930;29;20052;-81
2021/09/19 02:39:53;;;;;;;29.40;21.05;;;;;;;12.07;100.00;101107.75;4925656;29;20075;-82
2021/09/19 02:42:19;;;;;;;27.05;20.42;;;;;;;12.06;100.00;101112.28;4924998;29;20168;-82
2021/09/19 02:44:44;;;;;;;27.70;21.05;;;;;;;12.02;100.00;101112.75;4927788;28;20479;-81
2021/09/19 02:47:10;;;;;;;29.17;21.13;;;;;;;11.98;100.00;101101.50;4925635;29;20138;-82
2021/09/19 02:49:35;;;;;;;27.42;21.25;;;;;;;11.98;100.00;101106.03;4926684;29;20443;-83
2021/09/19 02:52:01;;;;;;;26.73;21.15;;;;;;;11.96;100.00;101101.66;4929172;29;20082;-81
2021/09/19 02:54:26;;;;;;;31.23;21.85;;;;;;;11.93;100.00;101095.78;4927360;28;20554;-84
2021/09/19 02:56:52;;;;;;;29.50;21.85;;;;;;;11.91;100.00;101098.66;4923148;29;20158;-82
2021/09/19 02:59:18;;;;;;;29.83;22.23;;;;;;;11.87;100.00;101089.22;4927641;29;20815;-82
2021/09/19 03:01:44;;;;;;;27.58;21.40;;;;;;;11.88;100.00;101085.53;4928105;29;20055;-82
2021/09/19 03:04:10;;;;;;;31.17;22.08;;;;;;;11.88;100.00;101084.66;4927139;29;20554;-81
2021/09/19 03:06:35;;;;;;;27.65;20.55;;;;;;;11.85;100.00;101088.53;4923998;28;20047;-84
2021/09/19 03:09:00;;;;;;;30.17;22.35;;;;;;;11.85;100.00;101087.66;4925135;29;20143;-82
2021/09/19 03:11:26;;;;;;;30.08;22.35;;;;;;;11.81;100.00;101081.78;4925835;29;20716;-82
2021/09/19 03:13:53;;;;;;;28.83;21.70;;;;;;;11.83;100.00;101078.94;4909609;29;20058;-82
2021/09/19 03:16:18;;;;;;;32.72;23.05;;;;;;;11.77;100.00;101075.06;4925088;29;20048;-81
2021/09/19 03:18:44;;;;;;;26.73;20.88;;;;;;;11.79;100.00;101078.41;4941219;28;20040;-83
2021/09/19 03:21:09;;;;;;;30.00;21.55;;;;;;;11.73;100.00;101071.84;4922818;29;20067;-82
2021/09/19 03:23:35;;;;;;;28.63;20.85;;;;;;;11.74;100.00;101086.16;4935677;28;20065;-81
2021/09/19 03:26:01;;;;;;;27.88;20.92;;;;;;;11.69;100.00;101086.63;4924690;29;20051;-81
2021/09/19 03:28:26;;;;;;;25.98;20.45;;;;;;;11.71;100.00;101097.22;4929760;28;20453;-83
2021/09/19 03:30:52;;;;;;;27.20;20.42;;;;;;;11.68;100.00;101092.16;4939829;28;20039;-83
2021/09/19 03:33:17;;;;;;;31.10;19.58;;;;;;;11.66;100.00;101097.72;4931584;28;20063;-81
2021/09/19 03:35:43;;;;;;;25.20;19.10;;;;;;;11.66;100.00;101102.25;4926448;28;20579;-82
2021/09/19 03:38:08;;;;;;;28.40;18.60;;;;;;;11.64;100.00;101091.66;4938551;28;20047;-81
2021/09/19 03:40:34;;;;;;;26.35;18.52;;;;;;;11.63;100.00;101091.81;4939767;28;20391;-81
2021/09/19 03:42:59;;;;;;;24.65;18.83;;;;;;;11.62;100.00;101098.19;4937275;28;20047;-82
2021/09/19 03:45:28;;;;;;;22.90;17.65;;;;;;;11.60;100.00;101097.53;4931585;28;20043;-82
2021/09/19 03:47:54;;;;;;;25.52;19.20;;;;;;;11.59;100.00;101096.66;4934118;28;20648;-82
2021/09/19 03:50:19;;;;;;;24.23;18.08;;;;;;;11.57;100.00;101090.63;4940257;28;20102;-82
2021/09/19 03:52:45;;;;;;;26.95;18.50;;;;;;;11.55;100.00;101094.47;4930573;28;20050;-81
2021/09/19 03:55:10;;;;;;;21.33;16.58;;;;;;;11.55;100.00;101092.63;4935735;28;20133;-80
2021/09/19 03:57:35;;;;;;;22.17;16.70;;;;;;;11.53;100.00;101095.47;4926846;28;20122;-81
2021/09/19 04:00:03;;;;;;;21.50;16.80;;;;;;;11.50;100.00;101089.59;4939205;28;20044;-81
2021/09/19 04:02:29;;;;;;;22.48;16.52;;;;;;;11.51;100.00;101094.81;4934025;28;20058;-81
2021/09/19 04:04:54;;;;;;;24.38;17.83;;;;;;;11.52;100.00;101093.78;4943541;28;20051;-82
2021/09/19 04:07:19;;;;;;;22.67;17.35;;;;;;;11.52;100.00;101091.09;4936013;28;20522;-83
2021/09/19 04:09:45;;;;;;;22.77;16.80;;;;;;;11.51;100.00;101100.19;4937748;28;20130;-81
2021/09/19 04:12:10;;;;;;;23.00;17.70;;;;;;;11.53;100.00;101100.84;4914442;28;20055;-82
2021/09/19 04:14:36;;;;;;;20.40;15.45;;;;;;;11.51;100.00;101104.72;4925492;28;20055;-81
2021/09/19 04:17:01;;;;;;;21.85;16.17;;;;;;;11.50;100.00;101106.53;4938038;28;20055;-83
2021/09/19 04:19:27;;;;;;;22.73;16.23;;;;;;;11.47;100.00;101103.34;4936754;28;20051;-83
2021/09/19 04:21:52;;;;;;;22.67;17.13;;;;;;;11.50;100.00;101094.97;4931968;28;20059;-82
2021/09/19 04:24:18;;;;;;;21.52;15.30;;;;;;;11.43;100.00;101104.69;4939854;28;20051;-81
2021/09/19 04:26:43;;;;;;;23.15;16.30;;;;;;;11.46;100.00;101093.63;4922516;28;20459;-81
2021/09/19 04:29:09;;;;;;;24.40;16.70;;;;;;;11.49;100.00;101102.19;4922420;28;20056;-82
2021/09/19 04:31:34;;;;;;;20.75;15.15;;;;;;;11.42;100.00;101103.84;4923676;28;20051;-81
2021/09/19 04:34:00;;;;;;;22.73;16.17;;;;;;;11.43;100.00;101091.25;4923930;28;20399;-83
2021/09/19 04:36:25;;;;;;;19.98;14.63;;;;;;;11.41;100.00;101095.94;4923478;28;20353;-82
2021/09/19 04:38:50;;;;;;;24.77;16.73;;;;;;;11.43;100.00;101100.16;4934482;28;20549;-82
2021/09/19 04:41:16;;;;;;;21.90;15.32;;;;;;;11.37;100.00;101092.75;4944723;28;20058;-82
2021/09/19 04:43:41;;;;;;;20.88;15.25;;;;;;;11.39;100.00;101098.78;4929481;28;20479;-82
2021/09/19 04:46:06;;;;;;;19.77;14.90;;;;;;;11.36;100.00;101093.72;4944017;28;20059;-82
2021/09/19 04:48:32;;;;;;;20.95;14.98;;;;;;;11.34;100.00;101090.38;4929224;28;20082;-82
2021/09/19 04:50:57;;;;;;;21.35;15.35;;;;;;;11.37;100.00;101086.53;4945703;28;20050;-82
2021/09/19 04:53:23;;;;;;;25.10;16.98;;;;;;;11.35;100.00;101091.22;4937672;28;20498;-81
2021/09/19 04:55:48;;;;;;;18.27;14.00;;;;;;;11.36;100.00;101088.34;4935313;28;20055;-81
2021/09/19 04:58:14;;;;;;;18.23;14.05;;;;;;;11.33;100.00;101088.69;4946011;28;20050;-83
2021/09/19 05:00:39;;;;;;;20.88;15.02;;;;;;;11.36;100.00;101088.34;4929067;28;20047;-81
2021/09/19 05:03:04;;;;;;;23.85;17.33;;;;;;;11.37;100.00;101095.44;4939084;28;20054;-81
2021/09/19 05:05:30;;;;;;;21.95;15.85;;;;;;;11.38;100.00;101096.28;4933113;28;20079;-81
2021/09/19 05:07:55;;;;;;;21.98;16.00;;;;;;;11.39;100.00;101089.88;4939457;28;20051;-81
2021/09/19 05:10:20;;;;;;;20.92;15.98;;;;;;;11.43;100.00;101085.88;4935284;28;20044;-82
2021/09/19 05:12:46;;;;;;;23.48;16.15;;;;;;;11.42;100.00;101087.72;4930837;28;20399;-84
2021/09/19 05:15:11;;;;;;;22.58;16.25;;;;;;;11.41;100.00;101091.41;4941635;28;20675;-82
2021/09/19 05:17:37;;;;;;;22.05;15.48;;;;;;;11.41;100.00;101079.81;4949145;28;20090;-83
2021/09/19 05:20:03;;;;;;;19.90;14.40;;;;;;;11.45;100.00;101083.84;4938368;28;20063;-82
2021/09/19 05:22:28;;;;;;;19.27;14.60;;;;;;;11.44;100.00;101083.00;4942277;28;20044;-82
2021/09/19 05:24:54;;;;;;;22.85;15.05;;;;;;;11.49;100.00;101088.75;4942983;28;20509;-83
2021/09/19 05:27:19;;;;;;;20.13;14.38;;;;;;;11.47;100.00;101093.44;4936781;28;20138;-82
2021/09/19 05:29:45;;;;;;;20.48;14.48;;;;;;;11.48;100.00;101087.06;4949243;28;20047;-81
2021/09/19 05:32:10;;;;;;;20.63;15.60;;;;;;;11.55;100.00;101092.63;4935662;29;20494;-82
2021/09/19 05:34:36;;;;;;;19.75;14.93;;;;;;;11.57;100.00;101084.41;4948952;28;20561;-82
2021/09/19 05:37:01;;;;;;;20.15;14.38;;;;;;;11.60;100.00;101089.47;4948843;28;20541;-82
2021/09/19 05:39:26;;;;;;;21.55;15.00;;;;;;;11.63;100.00;101095.34;4946955;28;20133;-83
2021/09/19 05:41:52;;;;;;;18.48;14.50;;;;;;;11.66;100.00;101095.03;4938168;28;20095;-83
2021/09/19 05:44:18;;;;;;;18.35;13.52;;;;;;;11.66;100.00;101086.13;4945149;28;20058;-82
2021/09/19 05:46:43;;;;;;;21.33;14.35;;;;;;;11.68;100.00;101089.47;4948155;28;20116;-82
2021/09/19 05:49:09;;;;;;;19.60;14.30;;;;;;;11.69;100.00;101093.84;4949354;28;20065;-82
2021/09/19 05:51:34;;;;;;;21.25;16.25;;;;;;;11.71;100.00;101094.53;4939578;28;20466;-82
2021/09/19 05:54:00;;;;;;;19.60;13.93;;;;;;;11.71;100.00;101094.53;4951025;28;20127;-82
2021/09/19 05:56:25;;;;;;;19.83;14.48;;;;;;;11.74;100.00;101094.22;4932187;29;20140;-82
2021/09/19 05:58:51;;;;;;;19.45;14.27;;;;;;;11.77;100.00;101099.25;4946325;28;20055;-82
2021/09/19 06:01:16;;;;;;;21.92;15.48;;;;;;;11.81;100.00;101103.28;4961209;28;20121;-83
2021/09/19 06:03:41;;;;;;;21.45;14.45;;;;;;;11.83;100.00;101101.28;4957409;28;20061;-84
2021/09/19 06:06:07;;;;;;;19.60;15.32;;;;;;;11.83;100.00;101106.66;4949124;28;20058;-82
2021/09/19 06:08:32;;;;;;;17.38;13.93;;;;;;;11.91;100.00;101106.72;4951438;28;20146;-82
2021/09/19 06:10:58;;;;;;;19.83;14.65;;;;;;;11.93;100.00;101112.75;4953797;28;20054;-82
2021/09/19 06:13:23;;;;;;;18.75;13.68;;;;;;;12.00;100.00;101117.47;4953604;28;20047;-82
2021/09/19 06:15:48;;;;;;;19.15;13.90;;;;;;;12.10;100.00;101110.09;4955756;28;20047;-82
2021/09/19 06:18:14;;;;;;;20.13;13.77;;;;;;;12.13;100.00;101107.91;4950056;28;20457;-83
2021/09/19 06:20:40;;;;;;;19.13;13.63;;;;;;;12.17;100.00;101111.13;4951855;28;20773;-82
2021/09/19 06:23:06;;;;;;;17.02;13.40;;;;;;;12.23;100.00;101106.91;4951001;28;20047;-81
2021/09/19 06:25:31;;;;;;;17.55;13.38;;;;;;;12.32;100.00;101112.13;4949089;28;20039;-82
2021/09/19 06:27:57;;;;;;;17.13;12.93;;;;;;;12.40;100.00;101114.81;4949235;28;20177;-82
2021/09/19 06:30:22;;;;;;;17.15;12.82;;;;;;;12.45;100.00;101110.78;4952250;28;20055;-82
2021/09/19 06:32:47;;;;;;;15.85;13.40;;;;;;;12.53;100.00;101108.91;4955900;28;20133;-82
2021/09/19 06:35:13;;;;;;;18.10;12.63;;;;;;;12.59;100.00;101113.63;4955086;28;20176;-82
2021/09/19 06:37:38;;;;;;;16.30;11.98;;;;;;;12.65;100.00;101106.72;4947810;28;20592;-83
2021/09/19 06:40:04;;;;;;;14.85;11.63;;;;;;;12.69;100.00;101102.69;4948408;28;20052;-82
2021/09/19 06:42:30;;;;;;;14.95;11.93;;;;;;;12.76;100.00;101102.84;4947025;28;20044;-84
2021/09/19 06:44:55;;;;;;;16.42;12.07;;;;;;;12.82;100.00;101103.00;4944915;28;20098;-82
2021/09/19 06:47:20;;;;;;;14.23;11.45;;;;;;;12.88;100.00;101102.28;4947641;28;20482;-83
2021/09/19 06:49:46;;;;;;;15.38;12.27;;;;;;;12.98;100.00;101106.69;4947022;28;20625;-83
2021/09/19 06:52:11;;;;;;;13.13;11.05;;;;;;;13.04;100.00;101111.38;4947597;28;20048;-82
2021/09/19 06:54:36;;;;;;;14.02;11.23;;;;;;;13.07;100.00;101098.38;4946011;28;20051;-82
2021/09/19 06:57:02;;;;;;;12.35;10.63;;;;;;;13.16;100.00;101104.59;4949710;28;20048;-83
2021/09/19 06:59:27;;;;;;;12.57;10.35;;;;;;;13.23;100.00;101102.03;4948070;29;20075;-83
2021/09/19 07:01:53;;;;;;;12.48;10.55;;;;;;;13.29;100.00;101096.84;4947252;28;20073;-83
2021/09/19 07:04:18;;;;;;;13.20;10.48;;;;;;;13.34;100.00;101101.69;4949196;28;20066;-83
2021/09/19 07:06:45;;;;;;;11.20;9.75;;;;;;;13.39;100.00;101095.78;4947223;28;20043;-84
2021/09/19 07:09:11;;;;;;;13.32;9.43;;;;;;;13.43;100.00;101105.19;4929950;28;20465;-83
2021/09/19 07:11:36;;;;;;;12.45;9.82;;;;;;;13.49;100.00;101101.78;4957589;28;20138;-82
2021/09/19 07:14:02;;;;;;;10.52;9.43;;;;;;;13.56;100.00;101104.63;4946858;28;20670;-82
2021/09/19 07:16:27;;;;;;;11.32;8.82;;;;;;;13.61;100.00;101102.22;4946074;28;20048;-82
2021/09/19 07:18:53;;;;;;;10.50;8.20;;;;;;;13.63;100.00;101105.59;4950493;28;20146;-82
2021/09/19 07:21:19;;;;;;;11.18;8.75;;;;;;;13.66;100.00;101106.06;4949019;28;20106;-83
2021/09/19 07:23:45;;;;;;;10.82;8.88;;;;;;;13.72;100.00;101100.00;4954010;28;20040;-83
2021/09/19 07:26:10;;;;;;;12.32;9.43;;;;;;;13.76;100.00;101111.28;4956872;28;20051;-83
2021/09/19 07:28:36;;;;;;;10.52;8.65;;;;;;;13.83;100.00;101106.81;4954627;28;20043;-83
2021/09/19 07:31:01;;;;;;;12.77;8.63;;;;;;;13.90;100.00;101104.28;4951450;28;20313;-82
2021/09/19 07:33:28;;;;;;;9.27;7.80;;;;;;;13.95;100.00;101109.94;4945146;28;20047;-84
2021/09/19 07:35:54;;;;;;;8.85;7.88;;;;;;;13.99;100.00;101108.59;4949467;28;20047;-82
2021/09/19 07:38:21;;;;;;;9.52;7.65;;;;;;;14.03;100.00;101107.22;4946572;28;20046;-83
2021/09/19 07:40:47;;;;;;;10.50;8.23;;;;;;;14.07;100.00;101107.69;4945486;28;20047;-82
2021/09/19 07:43:12;;;;;;;9.48;7.07;;;;;;;14.10;100.00;101116.28;4955774;28;20061;-83
2021/09/19 07:45:38;;;;;;;10.05;8.77;;;;;;;14.12;100.00;101111.53;4952457;28;20035;-83
2021/09/19 07:48:09;;;;;;;10.85;7.82;;;;;;;14.17;100.00;101116.38;4951067;28;20094;-83
2021/09/19 07:50:35;;;;;;;10.98;7.80;;;;;;;14.17;100.00;101122.63;4948621;28;20039;-82
2021/09/19 07:53:01;;;;;;;11.75;8.40;;;;;;;14.21;100.00;101126.66;4949774;28;20058;-82
2021/09/19 07:55:28;;;;;;;9.05;7.63;;;;;;;14.27;100.00;101132.34;4949084;28;20043;-83
2021/09/19 07:57:53;;;;;;;11.13;7.70;;;;;;;14.29;100.00;101125.75;4945792;28;20427;-84
2021/09/19 08:00:19;;;;;;;10.27;8.02;;;;;;;14.35;100.00;101140.38;4957165;28;20133;-83
2021/09/19 08:02:44;;;;;;;9.88;7.72;;;;;;;14.40;100.00;101132.59;4946985;28;20085;-83
2021/09/19 08:05:10;;;;;;;10.60;7.63;;;;;;;14.48;100.00;101132.53;4948527;28;20047;-83
2021/09/19 08:07:36;;;;;;;9.93;7.57;;;;;;;14.55;100.00;101129.94;4941990;28;20051;-84
2021/09/19 08:10:01;;;;;;;11.23;7.88;;;;;;;14.65;100.00;101133.25;4937782;29;20447;-84
2021/09/19 08:12:28;;;;;;;9.35;7.10;;;;;;;14.74;100.00;101137.56;4918176;29;20134;-83
2021/09/19 08:14:53;;;;;;;9.07;6.88;;;;;;;14.84;100.00;101143.50;4927885;29;20300;-83
2021/09/19 08:17:19;;;;;;;8.85;6.57;;;;;;;14.92;100.00;101145.31;4910852;29;20056;-83
2021/09/19 08:19:44;;;;;;;11.35;7.20;;;;;;;14.99;100.00;101143.56;4911601;29;20066;-84
2021/09/19 08:22:09;;;;;;;8.85;6.80;;;;;;;15.08;100.00;101149.72;4917322;29;20126;-83
2021/09/19 08:24:35;;;;;;;9.50;6.63;;;;;;;15.10;98.92;101151.22;4910385;29;20121;-83
2021/09/19 08:27:03;;;;;;;9.60;6.55;;;;;;;15.15;98.53;101145.25;4927105;29;20483;-84
2021/09/19 08:29:28;;;;;;;8.57;6.57;;;;;;;15.19;97.33;101146.56;4932154;29;20055;-83
2021/09/19 08:31:53;;;;;;;7.78;6.38;;;;;;;15.28;98.36;101144.59;4928591;28;20151;-83
2021/09/19 08:34:19;;;;;;;7.00;5.78;;;;;;;15.34;98.11;101142.00;4940546;28;20043;-84
2021/09/19 08:36:44;;;;;;;8.30;5.97;;;;;;;15.44;99.42;101149.81;4945672;28;20130;-83
2021/09/19 08:39:10;;;;;;;8.20;5.97;;;;;;;15.47;96.71;101154.00;4946921;28;20050;-82
2021/09/19 08:41:36;;;;;;;8.55;5.97;;;;;;;15.54;98.43;101155.78;4937851;28;20501;-82
2021/09/19 08:44:02;;;;;;;10.95;6.18;;;;;;;15.62;96.68;101157.53;4944837;28;20054;-83
2021/09/19 08:46:29;;;;;;;7.97;6.13;;;;;;;15.64;95.73;101154.66;4948642;28;20074;-83
2021/09/19 08:48:54;;;;;;;8.00;5.65;;;;;;;15.67;95.99;101156.97;4950227;28;20043;-83
2021/09/19 08:51:20;;;;;;;8.32;6.20;;;;;;;15.72;96.57;101158.09;4949397;28;20114;-83
2021/09/19 08:53:46;;;;;;;7.90;6.15;;;;;;;15.78;97.15;101167.34;4951272;28;20345;-85
2021/09/19 08:56:20;;;;;;;8.80;6.40;;;;;;;15.83;95.99;101166.78;4946420;28;20082;-83
2021/09/19 08:58:45;;;;;;;7.43;5.68;;;;;;;15.90;95.72;101175.81;4948091;28;20047;-85
2021/09/19 09:01:10;;;;;;;7.75;6.10;;;;;;;15.90;95.23;101171.22;4949604;28;20050;-84
2021/09/19 09:03:36;;;;;;;8.15;5.93;;;;;;;15.89;95.73;101174.13;4948224;28;20051;-85
2021/09/19 09:06:04;;;;;;;9.60;6.32;;;;;;;15.94;96.05;101177.97;4953362;28;20537;-84
2021/09/19 09:08:32;;;;;;;8.60;6.10;;;;;;;16.01;95.54;101178.03;4950092;28;20516;-85
2021/09/19 09:11:00;;;;;;;8.60;5.90;;;;;;;15.97;94.95;101185.69;4944353;28;20047;-84
2021/09/19 09:13:28;;;;;;;8.02;5.40;;;;;;;15.99;94.89;101178.19;4949906;28;20379;-84
2021/09/19 09:16:02;;;;;;;8.05;5.68;;;;;;;16.02;94.99;101182.41;4941085;28;20449;-84
2021/09/19 09:18:36;;;;;;;7.93;5.65;;;;;;;16.10;96.03;101184.16;4948379;28;20039;-84
2021/09/19 09:21:11;;;;;;;8.57;5.95;;;;;;;16.19;95.18;101188.41;4949970;28;20055;-84
2021/09/19 09:23:45;;;;;;;8.45;5.55;;;;;;;16.26;95.93;101183.09;4921044;29;20044;-84
2021/09/19 09:26:13;;;;;;;10.50;6.47;;;;;;;16.25;94.84;101179.53;4929896;29;20410;-83
2021/09/19 09:29:01;;;;;;;7.75;6.05;;;;;;;16.22;93.93;101175.31;4929783;29;20044;-85
2021/09/19 09:31:31;;;;;;;9.82;5.65;;;;;;;16.23;93.98;101187.03;4928765;29;20047;-85
2021/09/19 09:34:12;;;;;;;8.90;6.35;;;;;;;16.26;94.00;101170.41;4922658;29;20144;-84
2021/09/19 09:36:41;;;;;;;8.48;5.35;;;;;;;16.35;94.05;101179.22;4926056;29;20575;-85
2021/09/19 09:39:25;;;;;;;38.38;7.55;;;;;;;16.41;93.70;101173.88;4918838;29;20447;-84
2021/09/19 09:41:54;;;;;;;8.15;5.43;;;;;;;16.47;94.10;101174.97;4917112;29;20051;-84
2021/09/19 09:44:30;;;;;;;10.27;6.10;;;;;;;16.53;92.79;101174.19;4916793;29;20090;-84
2021/09/19 09:46:55;;;;;;;7.53;5.78;;;;;;;16.50;92.22;101180.00;4919732;29;20958;-84
2021/09/19 09:49:52;;;;;;;7.53;5.50;;;;;;;16.58;92.47;101174.44;4939418;28;20130;-86
2021/09/19 09:52:29;;;;;;;7.22;5.45;;;;;;;16.63;92.91;101172.00;4924547;28;20134;-85
2021/09/19 09:55:04;;;;;;;9.95;5.82;;;;;;;16.72;92.68;101172.69;4947553;28;20047;-85
2021/09/19 09:57:36;;;;;;;6.88;5.60;;;;;;;16.77;92.94;101178.38;4943639;28;20055;-84
2021/09/19 10:00:04;;;;;;;7.32;5.38;;;;;;;16.86;92.30;101177.22;4944532;28;20059;-85
2021/09/19 10:02:31;;;;;;;7.38;5.72;;;;;;;16.95;91.65;101163.53;4943887;28;20421;-85
2021/09/19 10:04:57;;;;;;;7.53;5.70;;;;;;;16.97;91.35;101167.69;4941488;28;20063;-84
2021/09/19 10:07:23;;;;;;;8.40;5.32;;;;;;;17.05;92.29;101170.25;4942146;28;20055;-84
2021/09/19 10:09:49;;;;;;;8.57;5.78;;;;;;;17.07;90.36;101178.22;4937006;28;20055;-84
2021/09/19 10:12:14;;;;;;;7.75;5.82;;;;;;;17.10;90.44;101166.97;4937854;28;20047;-84
2021/09/19 10:14:40;;;;;;;9.38;6.07;;;;;;;17.14;89.94;101173.66;4936590;28;20113;-83
2021/09/19 10:17:05;;;;;;;7.18;5.32;;;;;;;17.16;90.89;101168.88;4908124;29;20055;-84
2021/09/19 10:19:32;;;;;;;7.47;5.78;;;;;;;17.19;89.56;101168.50;4941896;28;20051;-84
2021/09/19 10:21:59;;;;;;;6.78;5.72;;;;;;;17.24;89.91;101168.75;4942846;28;20125;-84
2021/09/19 10:24:26;;;;;;;8.23;5.90;;;;;;;17.27;89.79;101165.63;4945984;28;20081;-84
2021/09/19 10:26:57;;;;;;;6.88;5.57;;;;;;;17.27;89.21;101179.19;4946020;28;20114;-84
2021/09/19 10:29:27;;;;;;;7.63;5.88;;;;;;;17.30;89.72;101177.94;4943673;28;20509;-85
2021/09/19 10:31:56;;;;;;;9.63;5.80;;;;;;;17.35;89.75;101170.91;4941609;28;20055;-84
2021/09/19 10:34:26;;;;;;;;;;;;;;;17.36;89.45;101171.72;4937594;28;20040;-85
2021/09/19 10:36:55;;;;;;;8.05;5.85;;;;;;;17.29;89.93;101165.41;4929078;28;19925;-86
2021/09/19 10:39:28;;;;;;;8.32;5.78;;;;;;;17.25;89.39;101173.13;4926566;29;20075;-83
2021/09/19 10:42:06;;;;;;;7.60;5.65;;;;;;;17.24;89.37;101173.31;4926566;29;20122;-85
2021/09/19 10:44:50;;;;;;;7.43;5.82;;;;;;;17.28;89.23;101166.47;4923231;28;20636;-84
2021/09/19 10:47:22;;;;;;;7.40;5.90;;;;;;;17.27;88.77;101165.63;4947300;28;20106;-84
2021/09/19 10:49:47;;;;;;;7.55;5.85;;;;;;;17.27;88.06;101168.34;4933010;28;20502;-84
2021/09/19 10:52:18;;;;;;;10.52;6.38;;;;;;;17.26;88.13;101172.09;4944727;28;20059;-84
2021/09/19 10:54:45;;;;;;;8.05;6.43;;;;;;;17.30;88.68;101167.94;4941228;28;20074;-85
2021/09/19 10:57:16;;;;;;;7.82;5.65;;;;;;;17.30;88.05;101167.94;4936672;28;20069;-84
2021/09/19 11:00:17;;;;;;;8.85;6.47;;;;;;;17.32;87.53;101182.16;4948781;28;20051;-85
2021/09/19 11:03:19;;;;;;;7.13;5.72;;;;;;;17.39;88.56;101178.63;4940094;28;20623;-83
2021/09/19 11:05:48;;;;;;;8.35;5.50;;;;;;;17.42;88.60;101175.53;4951054;28;20063;-84
2021/09/19 11:08:16;;;;;;;7.82;6.05;;;;;;;17.42;87.56;101172.81;4953598;28;20145;-83